Time;durP1;ratioP1;P1;durP2;ratioP2;P2;SDS_P1;SDS_P2;PMS_P1;PMS_P2;Temp;Humidity;BMP_temperature;BMP_pressure;BME280_temperature;BME280_humidity;BME280_pressure;Samples;Min_cycle;Max_cycle;Signal;HPM_P1;HPM_P2
2023/06/11 00:01:59;;;;;;;7.00;4.80;;;;;;;23.10;54.52;98931.72;7188378;40;20386;31
2023/06/11 00:07:19;;;;;;;5.30;4.80;;;;;;;23.02;54.56;98931.31;7197677;40;20344;31
2023/06/11 00:12:55;;;;;;;5.60;4.80;;;;;;;23.00;54.33;98942.56;7247660;40;20249;31
2023/06/11 00:18:31;;;;;;;5.45;4.65;;;;;;;22.74;55.27;98935.03;7242515;40;20260;31
2023/06/11 00:23:51;;;;;;;5.85;4.90;;;;;;;22.81;54.26;98944.78;7259036;40;20240;31
2023/06/11 00:29:27;;;;;;;8.75;4.80;;;;;;;22.98;53.71;98963.16;7261057;40;20331;31
2023/06/11 00:35:06;;;;;;;5.50;4.90;;;;;;;22.98;54.16;98952.16;7267494;40;20307;31
2023/06/11 00:40:40;;;;;;;5.00;4.60;;;;;;;22.69;55.67;98963.25;7281173;39;20260;31
2023/06/11 00:46:02;;;;;;;5.20;4.35;;;;;;;22.74;54.47;98959.75;7270541;40;20253;31
2023/06/11 00:51:37;;;;;;;5.00;4.43;;;;;;;22.73;55.91;98958.13;7291793;39;20434;31
2023/06/11 00:57:13;;;;;;;5.95;4.60;;;;;;;22.77;55.12;98971.06;7267792;40;20264;31
2023/06/11 01:02:49;;;;;;;5.53;5.03;;;;;;;22.68;54.72;98967.06;7289415;39;20241;31
2023/06/11 01:08:26;;;;;;;5.00;4.50;;;;;;;22.65;55.45;98967.56;7239210;40;20269;31
2023/06/11 01:14:01;;;;;;;6.05;4.80;;;;;;;22.56;56.06;98963.56;7268781;39;20484;31
2023/06/11 01:24:43;;;;;;;5.54;5.04;;;;;;;22.28;56.68;98964.47;7190314;40;20276;31
2023/06/11 01:35:24;;;;;;;5.30;4.80;;;;;;;22.36;56.61;98958.56;7255164;40;21035;31
2023/06/11 01:40:44;;;;;;;5.60;5.00;;;;;;;22.39;55.72;98965.47;7259636;40;20279;31
2023/06/11 01:51:25;;;;;;;5.70;5.07;;;;;;;22.38;56.76;98967.38;7298418;40;20264;31
2023/06/11 02:08:08;;;;;;;6.47;5.45;;;;;;;22.30;55.86;98984.28;7317745;39;20276;31
2023/06/11 02:13:30;;;;;;;6.10;5.50;;;;;;;22.24;56.30;98973.47;7236069;40;20238;31
2023/06/11 02:18:49;;;;;;;6.32;5.70;;;;;;;22.08;57.02;98966.84;7229167;40;20242;31
2023/06/11 02:24:26;;;;;;;6.27;5.67;;;;;;;21.90;57.97;98975.25;7260049;40;20333;31
2023/06/11 02:29:45;;;;;;;5.97;5.37;;;;;;;21.93;57.82;98980.28;7281183;40;20350;31
2023/06/11 02:35:22;;;;;;;6.64;5.34;;;;;;;21.90;57.37;98978.81;7276854;40;20292;31
2023/06/11 02:40:59;;;;;;;6.00;5.50;;;;;;;21.89;57.73;98979.09;7289686;39;20365;31
2023/06/11 02:46:35;;;;;;;5.78;5.15;;;;;;;21.84;57.08;98979.81;7271725;40;20240;31
2023/06/11 02:52:10;;;;;;;14.00;5.82;;;;;;;21.67;58.85;98980.84;7267206;39;20264;31
2023/06/11 03:02:51;;;;;;;7.43;5.62;;;;;;;21.74;58.59;98987.00;7242920;40;21187;31
2023/06/11 03:13:16;;;;;;;8.40;5.90;;;;;;;21.69;58.06;98995.13;7324752;39;21076;31
2023/06/11 03:23:57;;;;;;;6.05;5.47;;;;;;;21.58;59.51;99003.16;7322325;39;20272;31
2023/06/11 03:29:31;;;;;;;8.00;6.05;;;;;;;21.47;59.50;98998.53;7283025;39;20276;31
2023/06/11 03:34:53;;;;;;;6.25;5.43;;;;;;;21.45;58.86;99011.66;7248378;40;20312;31
2023/06/11 03:40:29;;;;;;;6.84;6.08;;;;;;;21.33;60.50;99008.09;7239988;40;20273;31
2023/06/11 03:46:05;;;;;;;5.90;5.30;;;;;;;21.39;59.00;99004.38;7259436;40;20260;31
2023/06/11 03:51:40;;;;;;;7.00;6.12;;;;;;;21.42;58.99;99017.59;7303786;39;20368;31
2023/06/11 03:57:18;;;;;;;6.72;6.10;;;;;;;21.40;60.03;99025.25;7336685;39;20256;31
2023/06/11 04:02:53;;;;;;;6.40;5.80;;;;;;;21.28;60.76;99018.94;7314112;39;21202;31
2023/06/11 04:08:13;;;;;;;7.24;5.82;;;;;;;21.29;60.00;99017.87;7324593;39;20276;31
2023/06/11 04:18:53;;;;;;;8.25;6.22;;;;;;;21.27;59.00;99031.00;7287509;39;21216;31
2023/06/11 04:24:28;;;;;;;6.30;5.70;;;;;;;21.34;58.83;99034.44;7264039;40;20249;31
2023/06/11 04:29:52;;;;;;;6.20;5.60;;;;;;;21.40;60.43;99043.63;7291941;39;20252;31
2023/06/11 04:35:25;;;;;;;6.80;5.47;;;;;;;21.38;59.65;99053.97;7301879;39;20248;31
2023/06/11 04:40:46;;;;;;;6.10;5.60;;;;;;;21.33;59.73;99041.00;7328393;39;20259;31
2023/06/11 04:46:22;;;;;;;6.72;6.03;;;;;;;21.25;60.20;99044.09;7283100;39;20257;31
2023/06/11 04:51:59;;;;;;;6.05;5.45;;;;;;;21.33;60.10;99042.91;7293828;39;20272;31
2023/06/11 05:02:44;;;;;;;6.60;5.87;;;;;;;21.38;61.47;99035.63;7312370;39;20263;31
2023/06/11 05:13:22;;;;;;;6.57;5.60;;;;;;;21.58;60.96;99058.03;7252705;40;20384;31
2023/06/11 05:24:06;;;;;;;6.05;5.47;;;;;;;21.84;59.88;99047.59;7301467;39;20286;31
2023/06/11 05:29:37;;;;;;;8.38;5.78;;;;;;;21.99;59.59;99058.91;7319018;39;20251;31
2023/06/11 05:34:58;;;;;;;7.48;6.08;;;;;;;22.12;59.02;99055.03;7296739;39;20237;31
2023/06/11 05:40:34;;;;;;;5.82;5.22;;;;;;;22.17;59.22;99055.13;7321524;39;20349;31
2023/06/11 05:46:10;;;;;;;6.20;5.60;;;;;;;22.23;58.78;99060.50;7296919;39;20357;31
2023/06/11 05:51:31;;;;;;;5.90;5.30;;;;;;;22.32;58.52;99067.25;7240280;40;20246;31
2023/06/11 05:56:51;;;;;;;5.95;5.35;;;;;;;22.54;57.52;99080.28;7245504;40;20260;31
2023/06/11 06:02:27;;;;;;;7.70;5.73;;;;;;;22.68;57.55;99076.16;7238056;40;20245;31
2023/06/11 06:07:48;;;;;;;6.20;5.70;;;;;;;22.72;58.40;99085.59;7261019;39;20260;31
2023/06/11 06:13:08;;;;;;;6.05;5.40;;;;;;;22.80;57.75;99082.44;7292981;39;20263;31
2023/06/11 06:18:46;;;;;;;6.50;5.90;;;;;;;22.88;58.01;99093.87;7301166;39;20345;31
2023/06/11 06:24:21;;;;;;;6.57;5.97;;;;;;;23.01;58.01;99094.63;7217740;40;20242;31
2023/06/11 06:29:41;;;;;;;6.85;6.15;;;;;;;23.17;56.98;99100.09;7197001;40;20246;31
2023/06/11 06:35:17;;;;;;;6.25;5.75;;;;;;;23.29;57.60;99102.78;7216878;40;20245;31
2023/06/11 06:40:53;;;;;;;7.08;6.34;;;;;;;23.44;57.03;99107.72;7221327;40;20241;31
2023/06/11 06:46:14;;;;;;;6.16;5.60;;;;;;;23.56;57.08;99101.03;7263513;39;20395;31
2023/06/11 06:51:48;;;;;;;8.57;6.20;;;;;;;23.72;56.38;99085.56;7268442;40;20274;31
2023/06/11 06:57:09;;;;;;;6.60;5.90;;;;;;;23.93;56.39;99095.75;7294353;39;20241;31
2023/06/11 07:02:44;;;;;;;6.15;5.50;;;;;;;24.08;55.99;99098.72;7265552;39;20241;31
2023/06/11 07:08:21;;;;;;;6.45;5.80;;;;;;;24.13;56.08;99093.25;7279673;39;20487;31
2023/06/11 07:13:40;;;;;;;5.95;5.35;;;;;;;24.34;54.08;99104.56;7221781;40;20442;31
2023/06/11 07:19:15;;;;;;;5.88;5.28;;;;;;;24.57;53.96;99113.34;7220979;40;20440;31
2023/06/11 07:24:52;;;;;;;5.68;5.00;;;;;;;24.73;54.51;99110.75;7266793;40;20261;31
2023/06/11 07:30:27;;;;;;;5.93;5.07;;;;;;;24.85;53.33;99108.66;7296660;39;20248;31
2023/06/11 07:35:49;;;;;;;5.70;5.20;;;;;;;25.07;52.61;99107.53;7256641;40;20252;31
2023/06/11 07:41:21;;;;;;;5.85;4.95;;;;;;;25.27;52.47;99106.88;7248574;40;20245;31
2023/06/11 07:46:57;;;;;;;5.65;5.10;;;;;;;25.45;52.04;99102.88;7282993;40;20261;31
2023/06/11 07:52:17;;;;;;;6.37;4.90;;;;;;;25.46;51.08;99121.91;7301661;39;20273;31
2023/06/11 07:57:53;;;;;;;5.13;4.60;;;;;;;25.55;50.86;99123.13;7302654;39;20256;31
2023/06/11 08:03:28;;;;;;;5.20;4.70;;;;;;;25.60;50.63;99103.00;7289637;40;20402;31
2023/06/11 08:09:03;;;;;;;6.40;5.30;;;;;;;25.69;50.13;99106.09;7251057;40;20428;31
2023/06/11 08:14:39;;;;;;;5.20;4.70;;;;;;;25.86;49.58;99099.28;7273402;39;20252;31
2023/06/11 08:20:16;;;;;;;5.30;4.57;;;;;;;26.13;49.19;99099.13;7260491;40;20258;31
2023/06/11 08:25:37;;;;;;;5.57;5.07;;;;;;;26.25;48.80;99105.28;7277611;39;20293;31
2023/06/11 08:31:14;;;;;;;6.05;4.82;;;;;;;26.30;48.61;99110.00;7267496;39;20241;31
2023/06/11 08:36:46;;;;;;;5.35;4.85;;;;;;;26.52;48.71;99107.88;7029596;40;20329;31
2023/06/11 08:42:22;;;;;;;6.60;4.70;;;;;;;26.63;48.09;99109.56;7259216;40;20380;31
2023/06/11 08:47:59;;;;;;;5.70;4.55;;;;;;;26.61;47.23;99097.09;7220154;40;20266;31
2023/06/11 08:53:34;;;;;;;5.90;4.60;;;;;;;26.90;46.82;99093.56;7197042;40;20440;31
2023/06/11 08:59:10;;;;;;;5.20;4.70;;;;;;;26.96;46.48;99097.19;7193431;40;20468;31
2023/06/11 09:04:46;;;;;;;5.03;4.63;;;;;;;27.16;46.17;99093.63;7188012;40;20601;31
2023/06/11 09:10:21;;;;;;;4.82;4.22;;;;;;;27.20;45.69;99089.19;7195691;40;20266;31
2023/06/11 09:15:58;;;;;;;5.25;4.72;;;;;;;27.45;46.53;99094.69;7212692;40;20273;31
2023/06/11 09:21:32;;;;;;;4.90;4.40;;;;;;;27.53;44.75;99101.63;7218788;40;20293;31
2023/06/11 09:27:08;;;;;;;5.40;4.68;;;;;;;27.58;43.81;99093.31;7206443;40;20451;31
2023/06/11 09:32:27;;;;;;;5.03;4.62;;;;;;;27.72;44.62;99094.41;7211958;40;20254;31
2023/06/11 09:38:03;;;;;;;6.82;4.52;;;;;;;27.96;41.77;99089.88;7246433;40;20279;31
2023/06/11 09:48:28;;;;;;;5.73;4.60;;;;;;;27.88;41.29;99097.94;7257587;40;21065;31
2023/06/11 09:59:08;;;;;;;5.60;4.57;;;;;;;28.20;40.24;99098.41;7280192;39;20259;31
2023/06/11 10:09:47;;;;;;;5.00;4.50;;;;;;;28.36;39.84;99108.31;7311124;39;20345;31
2023/06/11 10:20:47;;;;;;;4.50;4.10;;;;;;;28.68;38.00;99096.78;7291412;39;20272;31
2023/06/11 10:31:26;;;;;;;4.40;4.00;;;;;;;28.79;38.36;99078.13;7291569;40;21096;31
2023/06/11 10:37:02;;;;;;;5.45;3.92;;;;;;;29.12;36.91;99074.56;7299398;39;20259;31
2023/06/11 10:42:38;;;;;;;7.35;3.97;;;;;;;29.09;36.46;99089.03;7295976;39;20245;31
2023/06/11 10:48:13;;;;;;;5.93;4.28;;;;;;;29.09;35.20;99080.69;7283176;39;20241;31
2023/06/11 10:53:52;;;;;;;4.65;4.10;;;;;;;29.21;36.48;99078.37;7285016;39;20296;31
2023/06/11 10:59:27;;;;;;;3.74;3.44;;;;;;;29.33;35.93;99080.78;7278694;40;20257;31
2023/06/11 11:05:04;;;;;;;4.57;3.70;;;;;;;29.40;34.62;99073.75;7197001;40;20287;31
2023/06/11 11:10:39;;;;;;;5.42;3.45;;;;;;;29.58;33.97;99074.13;7194107;40;20246;31
2023/06/11 11:16:13;;;;;;;4.75;3.40;;;;;;;29.59;33.08;99089.69;7204037;40;20398;31
2023/06/11 11:21:34;;;;;;;3.45;3.15;;;;;;;29.68;31.81;99076.81;7231894;40;20272;31
2023/06/11 11:27:09;;;;;;;4.32;3.47;;;;;;;29.66;31.50;99073.53;7266603;40;20472;31
2023/06/11 11:32:45;;;;;;;5.55;2.95;;;;;;;29.83;31.65;99060.00;7223502;40;20374;31
2023/06/11 11:43:27;;;;;;;3.62;3.33;;;;;;;30.10;31.39;99051.91;7255398;40;20358;31
2023/06/11 11:49:02;;;;;;;6.15;3.75;;;;;;;30.35;30.91;99043.22;7219947;40;20467;31
2023/06/11 11:54:22;;;;;;;3.70;3.40;;;;;;;30.37;30.06;99057.63;7256537;40;20539;31
2023/06/11 11:59:56;;;;;;;4.35;3.17;;;;;;;30.34;28.50;99044.34;7306005;39;20265;31
2023/06/11 12:05:31;;;;;;;4.95;3.30;;;;;;;30.35;28.79;99048.78;7286041;39;20303;31
2023/06/11 12:11:06;;;;;;;10.85;3.45;;;;;;;30.32;28.84;99027.09;7271639;39;20523;31
2023/06/11 12:16:42;;;;;;;4.12;3.42;;;;;;;30.53;28.36;99027.69;7301192;39;20419;31
2023/06/11 12:22:15;;;;;;;5.35;3.45;;;;;;;30.47;27.83;99025.25;7221378;40;20262;31
2023/06/11 12:27:35;;;;;;;6.40;3.40;;;;;;;30.57;27.06;99016.78;7245725;40;20277;31
2023/06/11 12:33:11;;;;;;;4.68;3.40;;;;;;;30.79;27.37;99001.09;7276494;40;20589;31
2023/06/11 12:43:51;;;;;;;4.90;3.30;;;;;;;30.66;26.70;98999.09;7337375;39;20443;31
2023/06/11 12:49:28;;;;;;;4.07;3.47;;;;;;;30.65;27.37;99000.22;7326153;39;20238;31
2023/06/11 12:55:02;;;;;;;6.57;3.55;;;;;;;30.85;27.38;98996.25;7296903;39;20310;31
2023/06/11 13:00:37;;;;;;;3.83;3.35;;;;;;;30.83;27.29;98993.78;7263329;40;20394;31
2023/06/11 13:06:13;;;;;;;4.35;3.60;;;;;;;31.16;27.02;98991.84;7257790;40;20279;31
2023/06/11 13:11:33;;;;;;;4.12;3.37;;;;;;;31.29;26.42;98996.63;7187054;40;20263;31
2023/06/11 13:16:54;;;;;;;3.67;3.37;;;;;;;31.23;27.63;98988.66;7192324;40;20607;31
2023/06/11 13:22:31;;;;;;;5.88;4.28;;;;;;;31.20;27.04;98980.94;7187588;40;20356;31
2023/06/11 13:27:51;;;;;;;4.15;3.60;;;;;;;31.41;26.64;98973.00;7251208;39;20255;31
2023/06/11 13:33:13;;;;;;;5.05;3.78;;;;;;;31.12;25.81;98979.66;7317052;39;20252;31
2023/06/11 13:38:49;;;;;;;4.28;3.88;;;;;;;31.21;26.22;98963.91;7323375;39;20257;31
2023/06/11 13:44:09;;;;;;;5.95;3.70;;;;;;;31.41;26.23;98975.81;7260365;40;20314;31
2023/06/11 13:49:45;;;;;;;5.00;3.60;;;;;;;31.31;25.37;98962.88;7268390;39;20371;31
2023/06/11 14:00:26;;;;;;;5.50;3.42;;;;;;;31.35;25.80;98951.94;7313453;39;20661;31
2023/06/11 14:05:44;;;;;;;5.50;3.55;;;;;;;31.39;25.41;98947.41;7328780;39;20406;31
2023/06/11 14:11:05;;;;;;;4.25;3.65;;;;;;;31.52;25.14;98943.78;7337513;39;20341;31
2023/06/11 14:16:41;;;;;;;5.32;3.70;;;;;;;31.49;24.70;98931.31;7319263;39;20245;31
2023/06/11 14:22:02;;;;;;;4.78;3.83;;;;;;;31.54;25.83;98917.28;7290204;40;21341;31
2023/06/11 14:27:37;;;;;;;6.45;3.80;;;;;;;31.47;24.33;98918.81;7238385;40;20249;31
2023/06/11 14:33:11;;;;;;;4.68;3.75;;;;;;;31.49;24.80;98919.34;7240536;40;20277;31
2023/06/11 14:38:46;;;;;;;5.07;3.50;;;;;;;31.24;23.89;98909.53;7176337;40;20277;31
2023/06/11 14:44:21;;;;;;;4.40;4.00;;;;;;;31.55;25.86;98902.22;7227909;40;20265;31
2023/06/11 14:49:57;;;;;;;4.70;3.62;;;;;;;31.51;24.60;98917.06;7207311;40;20448;31
2023/06/11 15:00:21;;;;;;;4.50;3.78;;;;;;;31.31;25.71;98902.41;7208605;40;20270;31
2023/06/11 15:06:11;;;;;;;6.00;3.85;;;;;;;31.28;24.25;98891.06;7234643;40;20359;31
2023/06/11 15:16:33;;;;;;;4.65;3.90;;;;;;;31.42;25.26;98899.44;7216076;40;20265;31
2023/06/11 15:22:10;;;;;;;5.40;3.44;;;;;;;31.40;25.17;98896.13;7257925;40;20250;31
2023/06/11 15:27:30;;;;;;;4.35;3.60;;;;;;;31.55;24.80;98904.22;7257196;39;20276;31
2023/06/11 15:33:03;;;;;;;4.80;3.50;;;;;;;31.54;24.27;98891.38;7114207;40;21181;31
2023/06/11 15:38:39;;;;;;;3.92;3.53;;;;;;;31.44;25.70;98892.41;7256500;40;20266;31
2023/06/11 15:44:14;;;;;;;6.65;4.22;;;;;;;31.48;26.20;98889.81;7235518;40;20268;31
2023/06/11 15:49:35;;;;;;;6.78;4.40;;;;;;;31.40;26.09;98890.56;7276075;40;20327;31
2023/06/11 15:55:06;;;;;;;6.75;4.00;;;;;;;31.15;26.13;98877.97;7247948;40;20324;31
2023/06/11 16:00:41;;;;;;;7.20;3.60;;;;;;;31.24;26.04;98884.47;7292997;39;20269;31
2023/06/11 16:06:18;;;;;;;4.30;3.80;;;;;;;31.19;26.67;98876.22;7316000;39;20437;31
2023/06/11 16:11:52;;;;;;;4.50;3.90;;;;;;;31.16;26.64;98869.28;7301699;39;20544;31
2023/06/11 16:17:14;;;;;;;4.40;4.00;;;;;;;31.09;25.67;98884.75;7225250;40;20654;31
2023/06/11 16:22:46;;;;;;;5.98;3.96;;;;;;;31.12;26.67;98879.41;7279230;39;20383;31
2023/06/11 16:28:22;;;;;;;4.50;3.80;;;;;;;31.13;26.20;98878.28;7261547;39;20241;31
2023/06/11 16:33:57;;;;;;;4.72;3.83;;;;;;;31.24;26.24;98876.91;7307162;39;20252;31
2023/06/11 16:39:32;;;;;;;4.97;4.10;;;;;;;30.87;25.97;98877.09;7301247;39;20261;31
2023/06/11 16:45:08;;;;;;;5.00;4.00;;;;;;;30.83;27.18;98870.47;7257422;40;20257;31
2023/06/11 16:50:29;;;;;;;5.62;4.20;;;;;;;30.83;26.35;98870.47;7247943;40;20324;31
2023/06/11 16:56:04;;;;;;;6.50;4.40;;;;;;;30.48;27.25;98869.16;7243894;40;20339;31
2023/06/11 17:01:40;;;;;;;6.12;4.25;;;;;;;30.30;28.42;98868.03;7261694;40;20478;31
2023/06/11 17:07:15;;;;;;;4.65;4.20;;;;;;;30.16;28.84;98853.25;7211155;40;20255;31
2023/06/11 17:12:51;;;;;;;8.15;4.45;;;;;;;30.10;28.38;98853.66;7249313;40;20419;31
2023/06/11 17:18:26;;;;;;;6.60;4.40;;;;;;;29.85;28.18;98850.09;7246754;40;20451;31
2023/06/11 17:23:47;;;;;;;4.57;4.18;;;;;;;29.74;28.59;98850.56;7250974;40;20447;31
2023/06/11 17:34:27;;;;;;;5.15;3.65;;;;;;;29.49;28.74;98846.16;7255573;39;20269;31
2023/06/11 17:45:06;;;;;;;7.93;4.40;;;;;;;29.33;28.87;98867.75;7284415;40;20537;31
2023/06/11 17:55:46;;;;;;;7.97;4.30;;;;;;;29.05;29.40;98855.56;7273141;39;21155;31
2023/06/11 18:01:22;;;;;;;5.72;4.03;;;;;;;29.06;29.70;98865.56;7301443;39;20510;31
2023/06/11 18:06:57;;;;;;;4.70;4.25;;;;;;;29.06;29.43;98862.78;7227634;40;20261;31
2023/06/11 18:12:33;;;;;;;6.35;4.37;;;;;;;28.88;30.04;98860.75;7242522;40;20510;31
2023/06/11 18:17:53;;;;;;;4.60;4.20;;;;;;;28.83;30.20;98857.22;7205904;40;20243;31
2023/06/11 18:23:14;;;;;;;6.20;4.00;;;;;;;28.78;30.30;98868.38;7275077;40;20445;31
2023/06/11 18:28:51;;;;;;;4.80;4.30;;;;;;;28.72;30.59;98878.69;7310181;39;20264;31
2023/06/11 18:34:11;;;;;;;5.15;4.30;;;;;;;28.75;31.27;98880.03;7256535;40;20323;31
2023/06/11 18:39:47;;;;;;;4.20;3.80;;;;;;;28.60;30.28;98879.06;7318454;39;20271;31
2023/06/11 18:45:24;;;;;;;4.80;4.30;;;;;;;28.40;30.70;98884.78;7241679;40;20273;31
2023/06/11 18:56:01;;;;;;;5.32;4.00;;;;;;;28.21;31.53;98889.38;7307751;39;20273;31
2023/06/11 19:01:37;;;;;;;4.60;4.07;;;;;;;28.11;32.49;98895.00;7280035;40;20248;31
2023/06/11 19:06:57;;;;;;;4.53;4.00;;;;;;;28.07;32.27;98897.50;7299801;39;20244;31
2023/06/11 19:12:33;;;;;;;7.55;4.10;;;;;;;27.94;31.76;98898.13;7260241;40;20271;31
2023/06/11 19:18:10;;;;;;;9.90;4.50;;;;;;;27.79;32.04;98890.75;7287793;40;20264;31
2023/06/11 19:23:30;;;;;;;6.50;4.10;;;;;;;27.63;31.88;98907.72;7259207;40;20245;31
2023/06/11 19:29:03;;;;;;;6.18;4.10;;;;;;;27.36;32.47;98913.63;7269394;39;20249;31
2023/06/11 19:34:39;;;;;;;9.20;4.55;;;;;;;27.20;32.93;98915.62;7187643;40;20325;31
2023/06/11 19:39:59;;;;;;;7.35;3.85;;;;;;;26.93;34.47;98920.69;7231972;40;20273;31
2023/06/11 19:45:35;;;;;;;7.14;3.84;;;;;;;26.63;35.35;98915.16;7279511;39;20434;31
2023/06/11 19:51:11;;;;;;;5.15;4.00;;;;;;;26.29;35.42;98923.16;7206188;40;20251;31
2023/06/11 19:56:46;;;;;;;6.28;4.65;;;;;;;26.09;35.40;98925.87;7183035;40;20254;31
2023/06/11 20:02:06;;;;;;;8.27;4.53;;;;;;;25.86;36.97;98921.69;7199156;40;20258;31
2023/06/11 20:07:43;;;;;;;7.45;4.55;;;;;;;25.65;36.85;98926.31;7218353;40;20242;31
2023/06/11 20:13:18;;;;;;;5.90;4.10;;;;;;;25.39;37.21;98930.88;7184159;40;20254;31
2023/06/11 20:18:53;;;;;;;9.48;4.06;;;;;;;25.18;37.62;98942.09;7293743;40;20393;31
2023/06/11 20:24:29;;;;;;;7.70;4.60;;;;;;;25.02;37.83;98941.16;7260566;40;20253;31
2023/06/11 20:29:49;;;;;;;6.75;4.43;;;;;;;24.94;38.70;98944.41;7289064;39;20268;31
2023/06/11 20:35:09;;;;;;;6.47;4.60;;;;;;;24.72;38.47;98950.03;7278573;39;20242;31
2023/06/11 20:40:45;;;;;;;5.25;4.70;;;;;;;24.51;38.38;98948.22;7264213;39;20315;31
2023/06/11 20:46:04;;;;;;;7.97;4.63;;;;;;;24.42;39.45;98956.13;7229715;40;20258;31
2023/06/11 20:51:40;;;;;;;5.03;4.43;;;;;;;24.19;39.06;98946.28;7296612;39;20256;31
2023/06/11 20:57:16;;;;;;;7.10;4.43;;;;;;;24.01;40.14;98949.34;7286808;39;20318;31
2023/06/11 21:02:51;;;;;;;5.93;4.40;;;;;;;23.83;39.55;98941.44;7327137;39;20263;31
2023/06/11 21:08:14;;;;;;;5.40;4.90;;;;;;;23.69;39.78;98941.03;7328835;39;20256;31
2023/06/11 21:13:48;;;;;;;8.03;4.60;;;;;;;23.56;40.41;98935.94;7347771;39;20437;31
2023/06/11 21:19:07;;;;;;;7.70;5.00;;;;;;;23.49;39.72;98946.28;7277919;39;20268;31
2023/06/11 21:24:43;;;;;;;6.85;4.60;;;;;;;23.50;40.17;98933.34;7260610;40;20422;31
2023/06/11 21:30:21;;;;;;;7.27;4.20;;;;;;;23.49;39.93;98928.94;7251065;40;20340;31
2023/06/11 21:35:55;;;;;;;6.55;4.45;;;;;;;23.49;39.26;98917.94;7288393;39;20244;31
2023/06/11 21:41:15;;;;;;;5.25;4.10;;;;;;;23.46;39.29;98927.53;7274313;40;20454;31
2023/06/11 21:46:51;;;;;;;5.68;4.43;;;;;;;23.32;40.45;98921.56;7246836;40;20264;31
2023/06/11 21:52:27;;;;;;;6.35;4.35;;;;;;;23.20;39.51;98923.59;7278342;40;20257;31
2023/06/11 21:58:03;;;;;;;7.97;4.87;;;;;;;23.17;39.64;98915.84;7267078;40;20446;31
2023/06/11 22:03:32;;;;;;;5.15;4.55;;;;;;;23.03;39.91;98914.56;7075700;40;20412;31
2023/06/11 22:08:54;;;;;;;5.35;4.75;;;;;;;22.95;39.89;98914.19;7255369;39;20408;31
2023/06/11 22:14:27;;;;;;;9.70;4.55;;;;;;;22.78;39.40;98911.44;7249449;39;20434;31
2023/06/11 22:20:07;;;;;;;9.80;4.75;;;;;;;22.59;40.39;98908.12;7220782;40;20245;31
2023/06/11 22:25:24;;;;;;;5.05;4.20;;;;;;;22.45;40.55;98917.78;7216440;40;20429;31
2023/06/11 22:30:58;;;;;;;5.37;4.43;;;;;;;22.24;40.47;98919.37;7226575;40;20257;31
2023/06/11 22:36:32;;;;;;;6.37;4.60;;;;;;;22.26;40.61;98930.94;7214352;40;20460;31
2023/06/11 22:41:53;;;;;;;5.32;4.53;;;;;;;22.35;40.48;98931.34;7183883;40;20425;31
2023/06/11 22:47:28;;;;;;;5.76;4.66;;;;;;;22.33;40.70;98926.13;7212131;40;20268;31
2023/06/11 22:53:02;;;;;;;6.80;4.90;;;;;;;22.12;41.77;98924.09;7237359;40;20355;31
2023/06/11 22:58:37;;;;;;;5.60;4.52;;;;;;;;;;7247692;39;20241;31
2023/06/11 23:03:58;;;;;;;4.93;4.40;;;;;;;21.90;42.33;98923.94;7308037;39;20260;31
2023/06/11 23:14:38;;;;;;;5.95;4.57;;;;;;;21.78;43.03;98927.81;7326148;39;20271;31
2023/06/11 23:20:13;;;;;;;7.60;4.50;;;;;;;21.72;43.23;98928.81;7318295;39;20294;31
2023/06/11 23:25:49;;;;;;;7.40;4.82;;;;;;;21.57;42.88;98943.88;7302654;39;20272;31
2023/06/11 23:31:24;;;;;;;6.22;5.28;;;;;;;21.56;43.42;98931.25;7279517;39;20325;31
2023/06/11 23:42:07;;;;;;;5.75;4.30;;;;;;;21.26;44.32;98930.62;7249602;39;20561;31
2023/06/11 23:47:42;;;;;;;6.12;4.97;;;;;;;21.35;43.78;98931.06;7296682;39;20341;31
2023/06/11 23:53:03;;;;;;;6.00;4.85;;;;;;;21.36;43.97;98927.25;7280392;39;20237;31
2023/06/11 23:58:38;;;;;;;6.18;4.50;;;;;;;21.30;43.60;98920.84;7300033;40;20333;31
